Latest Coastal Weather Observations for Laverton

IDV60701

Issued at 8:02 pm EDT Thursday 21 October 2021 (issued every 10 minutes, with the page automatically refreshed every 10 minutes)

About coastal observations | Map of coastal stations | Coastal observations for VIC | Marine services | Other Formats
Station Details ID: 087031 Name: LAVERTON RAAF Lat: -37.86 Lon: 144.76 Height: 20.1 m
Data from the previous 72 hours. | See also: Recent months at Laverton
Date/Time
EDT
Wind Sea
Height
m
Swell Vis
km
Cloud Weather Temp
°C
Press
MSL
hPa
Rain since
9am
mm
Dir  Spd
kts
Gust
kts
Height
m
Period
s
Dir
21/08:00pm NNE 6 9 - - - - 10 Clear - 20.9 1013.3 0.0
21/07:30pm NNE 7 10 - - - - 10 - - 21.3 1013.2 0.0
21/07:00pm NNE 9 12 - - - - 10 - - 21.9 1013.0 0.0
21/06:30pm NNE 10 14 - - - - 10 Partly cloudy - 22.0 1012.8 0.0
21/06:00pm NNE 9 14 - - - - 10 Mostly cloudy - 22.3 1012.9 0.0
21/05:30pm N 10 15 - - - - 10 Cloudy - 22.6 1012.6 0.0
21/05:00pm NNE 11 16 - - - - 10 Cloudy - 23.3 1012.4 0.0
21/04:30pm NNE 11 17 - - - - 10 Cloudy - 23.0 1012.6 0.0
21/04:00pm NNE 12 17 - - - - 10 Cloudy - 23.3 1012.8 0.0
21/03:30pm NNE 13 19 - - - - 10 Cloudy - 23.2 1012.9 0.0
21/03:00pm NNE 12 17 - - - - 10 Mostly cloudy - 23.7 1013.0 0.0
21/02:30pm N 12 19 - - - - 10 Partly cloudy - 23.4 1013.2 0.0
21/02:00pm NNE 13 18 - - - - 10 - - 23.7 1013.4 0.0
21/01:30pm N 16 23 - - - - 10 Partly cloudy - 23.9 1013.6 0.0
21/01:23pm NNE 15 25 - - - - 10 Partly cloudy - 24.0 1013.5 0.0
21/01:00pm NNE 15 22 - - - - 10 Cloudy - 22.3 1013.6 0.0
21/12:30pm N 15 22 - - - - 10 - - 22.9 1013.8 0.0
21/12:00pm NNE 17 25 - - - - 10 Partly cloudy - 21.4 1014.2 0.0
21/11:30am NNE 16 24 - - - - 10 - - 21.0 1014.6 0.0
21/11:12am N 17 27 - - - - 10 - - 20.2 1015.0 0.0
21/11:00am NNE 14 22 - - - - 10 - - 20.6 1015.0 0.0
21/10:30am NNE 13 23 - - - - 10 - - 19.4 1015.0 0.0
21/10:00am NNE 15 22 - - - - 10 - - 18.2 1015.3 0.0
21/09:30am NNE 14 21 - - - - 10 - - 18.4 1015.1 0.0
21/09:00am N 14 22 - - - - 10 Cloudy - 18.1 1015.1 0.0
21/08:38am NNE 15 25 - - - - 10 - - 17.7 1014.9 -
21/08:30am NNE 14 21 - - - - 10 - - 17.5 1015.0 -
21/08:00am NNE 14 22 - - - - 10 - - 17.2 1015.1 -
21/07:30am NNE 12 19 - - - - 10 - - 16.7 1014.7 -
21/07:00am NNE 11 18 - - - - 10 - - 16.5 1014.4 -
21/06:30am NNE 9 16 - - - - 10 - - 16.2 1014.1 -
21/06:00am NE 7 9 - - - - 10 Cloudy - 15.0 1013.9 -
21/05:30am NE 7 11 - - - - 10 - - 14.6 1014.1 -
21/05:00am ENE 7 10 - - - - 10 - - 13.8 1013.8 -
21/04:30am ENE 6 7 - - - - 10 - - 13.0 1013.8 -
21/04:00am E 4 6 - - - - 10 - - 12.5 1013.9 -
21/03:30am E 5 7 - - - - 10 - - 12.2 1013.7 -
21/03:00am E 5 6 - - - - 10 Partly cloudy - 12.3 1013.9 0.0
21/02:30am E 4 5 - - - - 10 - - 12.5 1013.8 -
21/02:00am CALM 0 0 - - - - 10 - - 13.1 1014.3 -
21/01:30am CALM 0 0 - - - - 10 - - 13.2 1014.5 -
21/01:00am CALM 0 2 - - - - 10 - - 13.5 1015.1 -
21/12:30am E 3 4 - - - - 10 - - 13.6 1015.2 -
21/12:00am E 5 5 - - - - 10 - - 13.1 1015.3 -
 
Date/Time
EDT
Wind Sea
Height
m
Swell Vis
km
Cloud Weather Temp
°C
Press
MSL
hPa
Rain since
9am
mm
Dir  Spd
kts
Gust
kts
Height
m
Period
s
Dir
20/11:30pm ESE 2 5 - - - - 10 - - 13.8 1015.3 -
20/11:00pm ESE 1 3 - - - - 10 - - 14.3 1015.9 -
20/10:30pm ESE 4 5 - - - - 10 - - 14.4 1016.1 -
20/10:00pm ESE 4 5 - - - - 10 - - 15.3 1016.2 -
20/09:30pm ESE 4 6 - - - - 10 - - 15.7 1016.3 -
20/09:00pm ESE 5 7 - - - - 10 - - 16.5 1016.2 0.0
20/08:30pm ESE 8 12 - - - - 10 - - 17.0 1015.8 -
20/08:00pm ESE 8 13 - - - - 10 - - 17.4 1015.8 -
20/07:30pm SE 11 15 - - - - 10 - - 18.1 1015.6 -
20/07:00pm ESE 11 15 - - - - 10 - - 19.1 1015.6 -
20/06:30pm ESE 10 15 - - - - 10 - - 19.8 1015.5 -
20/06:00pm ESE 9 16 - - - - 10 - - 20.4 1015.5 -
20/05:30pm SE 12 16 - - - - 10 - - 20.8 1015.5 -
20/05:00pm SE 10 15 - - - - 10 - - 21.4 1015.7 -
20/04:30pm SE 11 15 - - - - 10 - - 20.9 1015.9 -
20/04:00pm SE 11 16 - - - - 10 - - 20.8 1016.2 -
20/03:30pm SE 10 15 - - - - 10 - - 21.0 1016.9 -
20/03:00pm SE 10 13 - - - - 10 - - 20.5 1017.3 0.0
20/02:30pm SE 7 11 - - - - 10 - - 20.8 1017.9 -
20/02:00pm SSE 8 12 - - - - 10 - - 20.3 1018.5 -
20/01:00pm SE 5 8 - - - - 10 - - 19.7 1019.0 -
20/12:30pm E 5 9 - - - - 10 - - 19.2 1019.5 -
20/12:00pm E 6 10 - - - - 10 - - 18.7 1019.8 -
20/11:30am ENE 4 6 - - - - 10 - - 18.4 1020.4 -
20/11:00am ENE 5 9 - - - - - - - 16.9 1020.9 -
20/10:00am ENE 5 7 - - - - - - - 15.9 1021.6 0.0
20/09:30am ENE 7 9 - - - - - - - 14.7 1021.6 0.0
20/09:00am NE 5 7 - - - - - - - 13.7 1022.0 0.0
20/08:30am N 3 6 - - - - - - - 12.2 1022.2 0.0
20/08:00am NW 5 7 - - - - - - - 9.9 1022.6 0.0
20/07:30am NW 4 5 - - - - - - - 8.2 1022.4 0.0
20/07:00am NW 5 6 - - - - - - - 6.9 1022.4 0.0
20/06:30am NW 5 6 - - - - - - - 6.7 1022.5 0.0
20/06:00am NNW 5 7 - - - - - - - 7.4 1022.3 0.0
20/05:30am ESE 2 5 - - - - - - - 9.9 1022.1 0.0
20/05:00am E 5 7 - - - - - - - 10.2 1021.5 0.0
20/04:30am ESE 6 8 - - - - - - - 10.7 1021.8 0.0
20/04:00am ESE 6 9 - - - - - - - 10.9 1021.9 0.0
20/03:30am SE 8 11 - - - - - - - 11.0 1022.5 0.0
20/03:00am ESE 6 10 - - - - - - - 11.0 1022.6 0.0
20/02:30am ESE 7 9 - - - - - - - 10.9 1023.1 0.0
20/02:00am ESE 5 7 - - - - - - - 10.5 1023.4 0.0
20/01:30am ESE 6 9 - - - - - - - 11.2 1023.8 0.0
20/01:00am ESE 8 14 - - - - - - - 11.5 1023.9 0.0
20/12:30am ESE 11 17 - - - - - - - 12.1 1023.8 0.0
20/12:00am ESE 10 16 - - - - - - - 12.2 1024.2 0.0
 
Date/Time
EDT
Wind Sea
Height
m
Swell Vis
km
Cloud Weather Temp
°C
Press
MSL
hPa
Rain since
9am
mm
Dir  Spd
kts
Gust
kts
Height
m
Period
s
Dir
19/11:30pm ESE 13 18 - - - - - - - 12.3 1024.2 0.0
19/11:00pm SE 12 19 - - - - - - - 12.4 1024.8 0.0
19/10:30pm ESE 14 21 - - - - - - - 12.6 1024.3 0.0
19/10:00pm ESE 11 17 - - - - - - - 13.0 1024.3 0.0
19/09:30pm SE 11 17 - - - - - - - 13.3 1023.7 0.0
19/09:00pm SE 11 17 - - - - - - - 13.6 1023.5 0.0
19/08:30pm SSE 8 11 - - - - - - - 13.3 1023.2 0.0
19/08:00pm S 9 13 - - - - - - - 13.3 1023.2 0.0
19/07:30pm SSE 10 15 - - - - - - - 13.7 1022.8 0.0
19/07:00pm S 10 15 - - - - - - - 13.9 1022.8 0.0
19/06:30pm SSE 13 17 - - - - - Partly cloudy - 14.1 1022.4 0.0
19/06:00pm SSE 13 17 - - - - - Partly cloudy - 15.2 1022.5 0.0
19/05:30pm SSE 13 18 - - - - - Partly cloudy - 15.0 1022.5 0.0
19/05:00pm S 15 23 - - - - - Partly cloudy - 14.5 1023.0 0.0
19/04:30pm S 15 22 - - - - - Partly cloudy - 15.0 1023.1 0.0
19/04:00pm S 15 21 - - - - - Partly cloudy - 15.1 1022.8 0.0
19/03:30pm SSE 14 21 - - - - - Partly cloudy - 15.8 1022.5 0.0
19/03:00pm SSE 16 21 - - - - - - - 15.7 1022.6 0.0
19/02:30pm S 13 19 - - - - - Partly cloudy - 15.5 1022.7 0.0
19/02:00pm SSE 9 13 - - - - - Partly cloudy - 15.6 1022.9 0.0
19/01:30pm S 8 14 - - - - - Partly cloudy - 15.3 1023.2 0.0
19/01:00pm SSE 8 14 - - - - - Partly cloudy - 15.3 1023.2 0.0
19/12:30pm SSE 8 14 - - - - - Partly cloudy - 14.8 1023.1 0.0
19/12:00pm SSE 8 13 - - - - - Mostly clear - 14.6 1023.1 0.0
19/11:30am SSE 8 12 - - - - - Partly cloudy - 14.9 1023.3 0.0
19/11:00am SSE 11 16 - - - - - Partly cloudy - 14.3 1023.2 0.0
19/10:30am SSW 11 17 - - - - - Partly cloudy - 13.0 1023.0 0.0
19/10:00am SSW 10 16 - - - - - Partly cloudy - 12.9 1023.0 0.0
19/09:30am SSW 11 17 - - - - 10 Partly cloudy - 12.5 1022.9 0.0
19/09:00am SSW 9 12 - - - - 10 Partly cloudy - 12.0 1022.7 1.2
19/08:30am SW 9 13 - - - - 10 Cloudy - 10.8 1022.5 1.2
19/08:00am SW 3 6 - - - - 10 Partly cloudy - 9.3 1022.0 1.2
19/07:54am SW 3 7 - - - - 10 Partly cloudy - 9.1 1021.9 1.2
19/07:30am WSW 5 7 - - - - 9 Partly cloudy - 9.1 1021.4 1.0
19/07:10am WSW 7 9 - - - - 7 Partly cloudy - 8.6 1021.0 0.8
19/07:00am W 7 9 - - - - 10 Partly cloudy - 8.4 1020.7 0.8
19/06:30am WSW 6 9 - - - - 10 Partly cloudy - 8.0 1020.3 0.8
19/06:00am W 6 8 - - - - 10 Partly cloudy Recent precip. 7.8 1020.0 0.8
19/05:30am W 5 6 - - - - 10 Partly cloudy - 7.7 1019.6 0.6
19/05:00am W 5 6 - - - - 10 Partly cloudy - 8.0 1019.5 0.6
19/04:30am W 5 6 - - - - 10 Partly cloudy - 8.1 1019.5 0.6
19/04:00am W 4 6 - - - - 10 Partly cloudy - 7.8 1019.4 0.6
19/03:30am WNW 7 9 - - - - 10 Partly cloudy - 7.8 1019.5 0.6
19/03:00am WNW 6 8 - - - - 10 Mostly clear - 7.8 1019.6 0.6
19/02:30am WNW 5 7 - - - - 10 - - 7.8 1019.6 0.6
19/02:00am W 6 7 - - - - 10 Partly cloudy - 8.4 1019.5 0.6
19/01:30am W 6 8 - - - - 10 Partly cloudy - 9.0 1019.5 0.6
19/01:00am W 5 6 - - - - 10 Partly cloudy - 9.0 1019.3 0.6
19/12:30am W 6 8 - - - - 10 Partly cloudy - 9.5 1019.2 0.6
19/12:00am W 6 7 - - - - 10 Mostly clear - 9.6 1019.1 0.6
 
Date/Time
EDT
Wind Sea
Height
m
Swell Vis
km
Cloud Weather Temp
°C
Press
MSL
hPa
Rain since
9am
mm
Dir  Spd
kts
Gust
kts
Height
m
Period
s
Dir
18/11:30pm WSW 5 7 - - - - 10 Partly cloudy - 10.2 1019.1 0.6
18/11:00pm WSW 6 9 - - - - 10 Partly cloudy - 10.6 1018.9 0.6
18/10:30pm SW 5 7 - - - - 10 Partly cloudy - 10.7 1018.6 0.6
18/10:00pm SW 10 15 - - - - 10 Partly cloudy - 11.1 1018.5 0.6
18/09:40pm SW 7 12 - - - - 9 Partly cloudy - 11.4 1018.4 0.6
18/09:30pm SSW 8 11 - - - - 10 Partly cloudy - 11.4 1018.2 0.2
18/09:29pm SSW 8 11 - - - - 10 Partly cloudy - 11.4 1018.2 0.2
18/09:00pm SSW 10 17 - - - - 10 Cloudy - 11.7 1017.8 0.0
18/08:30pm S 5 7 - - - - 10 Partly cloudy - 11.8 1017.3 0.0

Other formats

Comma delimited format used in spreadsheet applications
http://www.bom.gov.au/fwo/IDV60701/IDV60701.94865.axf

JavaScript Object Notation format (JSON) in row-major order
http://www.bom.gov.au/fwo/IDV60701/IDV60701.94865.json

Data quality

Most of these data are generated automatically and are frequently updated. Quality checks on data are not normally performed. It is possible for incorrect values to appear. Refer to information at About Latest Weather Observations and please check the disclaimer before using these data.